Karen Pape — WDF9420 — position and weather

sailwx.info

Track history (hours):
 
Tides and Currents Weather Stations Pressure Air Temp Water Temp Dewpoint Dewpoint Depression Visibility Wind Speed Wind Dir Waves Ship Positions

Karen Pape

Owner: Genesis Marine, LLC, Houston, TX. More information available from US FCC via Universal Licensing System and Coast Guard Vessel Documentation Center.

Last reported at 2018-Jun-21 10:58 UTC. Time now 2018-Jun-21 11:45 UTC.
Position N 29°57' W 090°23'.

Length 26 m; draft 3.4 m.

Type: Towing. MMSI: 367504970.

Date/timePositionNaut miles runAvg speedWind from/ knotsBaromVisibWave heightAir tempDewpointWater temp
2018-Jun-21 10:58N 29°57' W 090°23'  
2018-Jun-18 21:59N 29°57' W 090°23'0 0.0
2018-Jun-18 21:30N 29°57' W 090°23'  
2018-Jun-14 05:08N 29°57' W 090°23'0 0.0
2018-Jun-14 04:48N 29°57' W 090°23'0 0.0
2018-Jun-14 04:30N 29°57' W 090°23'0 0.0
2018-Jun-14 04:00N 29°57' W 090°23'0 0.2
2018-Jun-14 02:20N 29°57' W 090°23'0 0.0
2018-Jun-14 01:50N 29°57' W 090°23'0 0.0
2018-Jun-14 01:30N 29°57' W 090°23'0 0.1
2018-Jun-13 23:59N 29°57' W 090°23'0 0.4
2018-Jun-13 23:30N 29°57' W 090°23'0 0.0
2018-Jun-13 22:42N 29°57' W 090°23'24 0.7
2018-Jun-12 13:15N 29°33' W 090°25'1 1.2
2018-Jun-12 12:50N 29°33' W 090°25'1 3.4
2018-Jun-12 12:29N 29°33' W 090°27'2 5.1
2018-Jun-12 12:00N 29°34' W 090°29'2 4.9
2018-Jun-12 11:30N 29°34' W 090°32'2 4.7
2018-Jun-12 11:00N 29°34' W 090°35'2 4.7
2018-Jun-12 10:30N 29°35' W 090°38'2 4.7
2018-Jun-12 10:00N 29°36' W 090°40'2 4.3
2018-Jun-12 09:29N 29°37' W 090°42'2 4.1
2018-Jun-12 09:00N 29°35' W 090°43'2 3.1
2018-Jun-12 08:30N 29°34' W 090°44'1 1.6
2018-Jun-12 08:00N 29°33' W 090°45'0 0.6
2018-Jun-12 07:30N 29°33' W 090°45'1 2.4
2018-Jun-12 07:00N 29°32' W 090°46'3 5.9
2018-Jun-12 06:30N 29°32' W 090°49'3 5.6
2018-Jun-12 06:00N 29°32' W 090°53'3 5.5
2018-Jun-12 05:30N 29°34' W 090°55'3 5.1
2018-Jun-12 04:57N 29°35' W 090°58'52 3.5
2018-Jun-11 14:10N 29°51' W 091°55'1 4.7
2018-Jun-11 14:00N 29°51' W 091°56'2 4.7
2018-Jun-11 13:30N 29°50' W 091°58'2 4.6
2018-Jun-11 13:00N 29°50' W 092°01'2 4.8
2018-Jun-11 12:30N 29°49' W 092°03'2 4.9
2018-Jun-11 12:00N 29°48' W 092°06'2 5.0
2018-Jun-11 11:30N 29°47' W 092°09'2 4.6
2018-Jun-11 11:00N 29°47' W 092°11'  
Track history (hours):
 
Tides and Currents Weather Stations Pressure Air Temp Water Temp Dewpoint Dewpoint Depression Visibility Wind Speed Wind Dir Waves Ship Positions

Karen Pape

Owner: Genesis Marine, LLC, Houston, TX. More information available from US FCC via Universal Licensing System and Coast Guard Vessel Documentation Center.

Last reported at 2018-Jun-21 10:58 UTC. Time now 2018-Jun-21 11:45 UTC.
Position N 29°57' W 090°23'.

Length 26 m; draft 3.4 m.

Type: Towing. MMSI: 367504970.

Date/timePositionNaut miles runAvg speedWind from/ knotsBaromVisibWave heightAir tempDewpointWater temp
2018-Jun-21 10:58N 29°57' W 090°23'  
2018-Jun-18 21:59N 29°57' W 090°23'0 0.0
2018-Jun-18 21:30N 29°57' W 090°23'  
2018-Jun-14 05:08N 29°57' W 090°23'0 0.0
2018-Jun-14 04:48N 29°57' W 090°23'0 0.0
2018-Jun-14 04:30N 29°57' W 090°23'0 0.0
2018-Jun-14 04:00N 29°57' W 090°23'0 0.2
2018-Jun-14 02:20N 29°57' W 090°23'0 0.0
2018-Jun-14 01:50N 29°57' W 090°23'0 0.0
2018-Jun-14 01:30N 29°57' W 090°23'0 0.1
2018-Jun-13 23:59N 29°57' W 090°23'0 0.4
2018-Jun-13 23:30N 29°57' W 090°23'0 0.0
2018-Jun-13 22:42N 29°57' W 090°23'24 0.7
2018-Jun-12 13:15N 29°33' W 090°25'1 1.2
2018-Jun-12 12:50N 29°33' W 090°25'1 3.4
2018-Jun-12 12:29N 29°33' W 090°27'2 5.1
2018-Jun-12 12:00N 29°34' W 090°29'2 4.9
2018-Jun-12 11:30N 29°34' W 090°32'2 4.7
2018-Jun-12 11:00N 29°34' W 090°35'2 4.7
2018-Jun-12 10:30N 29°35' W 090°38'2 4.7
2018-Jun-12 10:00N 29°36' W 090°40'2 4.3
2018-Jun-12 09:29N 29°37' W 090°42'2 4.1
2018-Jun-12 09:00N 29°35' W 090°43'2 3.1
2018-Jun-12 08:30N 29°34' W 090°44'1 1.6
2018-Jun-12 08:00N 29°33' W 090°45'0 0.6
2018-Jun-12 07:30N 29°33' W 090°45'1 2.4
2018-Jun-12 07:00N 29°32' W 090°46'3 5.9
2018-Jun-12 06:30N 29°32' W 090°49'3 5.6
2018-Jun-12 06:00N 29°32' W 090°53'3 5.5
2018-Jun-12 05:30N 29°34' W 090°55'3 5.1
2018-Jun-12 04:57N 29°35' W 090°58'52 3.5
2018-Jun-11 14:10N 29°51' W 091°55'1 4.7
2018-Jun-11 14:00N 29°51' W 091°56'2 4.7
2018-Jun-11 13:30N 29°50' W 091°58'2 4.6
2018-Jun-11 13:00N 29°50' W 092°01'2 4.8
2018-Jun-11 12:30N 29°49' W 092°03'2 4.9
2018-Jun-11 12:00N 29°48' W 092°06'2 5.0
2018-Jun-11 11:30N 29°47' W 092°09'2 4.6
2018-Jun-11 11:00N 29°47' W 092°11'  

Dump ship's entire track history